sensor_id;sensor_type;location;lat;lon;timestamp;P1;durP1;ratioP1;P2;durP2;ratioP2
14139;SDS011;7150;53.514;9.988;2024-03-22T00:01:52;11.07;;;7.17;;
14139;SDS011;7150;53.514;9.988;2024-03-22T00:04:18;8.60;;;6.30;;
14139;SDS011;7150;53.514;9.988;2024-03-22T00:06:45;9.93;;;7.07;;
14139;SDS011;7150;53.514;9.988;2024-03-22T00:09:11;11.23;;;7.10;;
14139;SDS011;7150;53.514;9.988;2024-03-22T00:11:38;8.10;;;6.40;;
14139;SDS011;7150;53.514;9.988;2024-03-22T00:14:05;9.93;;;6.90;;
14139;SDS011;7150;53.514;9.988;2024-03-22T00:16:31;9.93;;;5.90;;
14139;SDS011;7150;53.514;9.988;2024-03-22T00:18:56;12.37;;;7.10;;
14139;SDS011;7150;53.514;9.988;2024-03-22T00:21:22;10.27;;;7.03;;
14139;SDS011;7150;53.514;9.988;2024-03-22T00:23:48;9.43;;;6.03;;
14139;SDS011;7150;53.514;9.988;2024-03-22T00:26:13;10.00;;;5.70;;
14139;SDS011;7150;53.514;9.988;2024-03-22T00:28:39;10.73;;;6.80;;
14139;SDS011;7150;53.514;9.988;2024-03-22T00:31:04;11.37;;;6.77;;
14139;SDS011;7150;53.514;9.988;2024-03-22T00:33:30;10.87;;;6.73;;
14139;SDS011;7150;53.514;9.988;2024-03-22T00:35:56;11.10;;;6.33;;
14139;SDS011;7150;53.514;9.988;2024-03-22T00:38:22;8.00;;;5.87;;
14139;SDS011;7150;53.514;9.988;2024-03-22T00:40:47;11.87;;;6.67;;
14139;SDS011;7150;53.514;9.988;2024-03-22T00:43:13;9.83;;;6.70;;
14139;SDS011;7150;53.514;9.988;2024-03-22T00:45:38;10.23;;;7.13;;
14139;SDS011;7150;53.514;9.988;2024-03-22T00:48:04;9.93;;;7.07;;
14139;SDS011;7150;53.514;9.988;2024-03-22T00:50:30;10.53;;;7.00;;
14139;SDS011;7150;53.514;9.988;2024-03-22T00:52:55;11.60;;;7.97;;
14139;SDS011;7150;53.514;9.988;2024-03-22T00:55:21;11.37;;;7.20;;
14139;SDS011;7150;53.514;9.988;2024-03-22T00:57:47;14.47;;;7.50;;
14139;SDS011;7150;53.514;9.988;2024-03-22T01:00:13;9.20;;;6.77;;
14139;SDS011;7150;53.514;9.988;2024-03-22T01:02:39;11.20;;;7.33;;
14139;SDS011;7150;53.514;9.988;2024-03-22T01:05:05;10.50;;;6.67;;
14139;SDS011;7150;53.514;9.988;2024-03-22T01:07:30;11.70;;;7.30;;
14139;SDS011;7150;53.514;9.988;2024-03-22T01:09:56;10.73;;;7.33;;
14139;SDS011;7150;53.514;9.988;2024-03-22T01:12:22;11.17;;;7.20;;
14139;SDS011;7150;53.514;9.988;2024-03-22T01:14:47;12.40;;;7.70;;
14139;SDS011;7150;53.514;9.988;2024-03-22T01:17:13;11.70;;;7.57;;
14139;SDS011;7150;53.514;9.988;2024-03-22T01:19:38;12.00;;;7.80;;
14139;SDS011;7150;53.514;9.988;2024-03-22T01:22:04;12.63;;;7.07;;
14139;SDS011;7150;53.514;9.988;2024-03-22T01:24:29;10.67;;;7.23;;
14139;SDS011;7150;53.514;9.988;2024-03-22T01:26:55;10.40;;;7.70;;
14139;SDS011;7150;53.514;9.988;2024-03-22T01:29:20;11.33;;;8.00;;
14139;SDS011;7150;53.514;9.988;2024-03-22T01:31:46;11.70;;;7.97;;
14139;SDS011;7150;53.514;9.988;2024-03-22T01:34:12;11.27;;;8.00;;
14139;SDS011;7150;53.514;9.988;2024-03-22T01:36:38;13.17;;;9.03;;
14139;SDS011;7150;53.514;9.988;2024-03-22T01:39:04;13.53;;;8.80;;
14139;SDS011;7150;53.514;9.988;2024-03-22T01:41:29;15.47;;;9.20;;
14139;SDS011;7150;53.514;9.988;2024-03-22T01:43:55;13.13;;;9.33;;
14139;SDS011;7150;53.514;9.988;2024-03-22T01:46:20;14.43;;;9.53;;
14139;SDS011;7150;53.514;9.988;2024-03-22T01:48:46;13.77;;;8.83;;
14139;SDS011;7150;53.514;9.988;2024-03-22T01:51:11;13.03;;;9.20;;
14139;SDS011;7150;53.514;9.988;2024-03-22T01:53:37;14.77;;;9.80;;
14139;SDS011;7150;53.514;9.988;2024-03-22T01:56:03;15.50;;;9.93;;
14139;SDS011;7150;53.514;9.988;2024-03-22T01:58:29;15.70;;;10.23;;
14139;SDS011;7150;53.514;9.988;2024-03-22T02:00:54;16.77;;;10.63;;
14139;SDS011;7150;53.514;9.988;2024-03-22T02:03:21;15.30;;;10.70;;
14139;SDS011;7150;53.514;9.988;2024-03-22T02:05:46;18.27;;;11.10;;
14139;SDS011;7150;53.514;9.988;2024-03-22T02:08:12;14.83;;;9.83;;
14139;SDS011;7150;53.514;9.988;2024-03-22T02:10:37;19.27;;;11.17;;
14139;SDS011;7150;53.514;9.988;2024-03-22T02:13:03;16.37;;;11.27;;
14139;SDS011;7150;53.514;9.988;2024-03-22T02:15:28;17.07;;;11.30;;
14139;SDS011;7150;53.514;9.988;2024-03-22T02:17:54;16.23;;;10.97;;
14139;SDS011;7150;53.514;9.988;2024-03-22T02:20:20;18.33;;;11.60;;
14139;SDS011;7150;53.514;9.988;2024-03-22T02:22:45;16.00;;;10.93;;
14139;SDS011;7150;53.514;9.988;2024-03-22T02:25:11;17.93;;;11.93;;
14139;SDS011;7150;53.514;9.988;2024-03-22T02:27:37;17.67;;;11.50;;
14139;SDS011;7150;53.514;9.988;2024-03-22T02:30:03;15.50;;;11.53;;
14139;SDS011;7150;53.514;9.988;2024-03-22T02:32:29;19.07;;;11.37;;
14139;SDS011;7150;53.514;9.988;2024-03-22T02:34:55;18.37;;;12.27;;
14139;SDS011;7150;53.514;9.988;2024-03-22T02:37:20;17.07;;;11.93;;
14139;SDS011;7150;53.514;9.988;2024-03-22T02:39:46;16.07;;;11.60;;
14139;SDS011;7150;53.514;9.988;2024-03-22T02:42:11;16.80;;;11.53;;
14139;SDS011;7150;53.514;9.988;2024-03-22T02:44:37;18.33;;;12.00;;
14139;SDS011;7150;53.514;9.988;2024-03-22T02:47:07;18.93;;;12.93;;
14139;SDS011;7150;53.514;9.988;2024-03-22T02:49:37;16.53;;;12.53;;
14139;SDS011;7150;53.514;9.988;2024-03-22T02:52:03;22.50;;;14.03;;
14139;SDS011;7150;53.514;9.988;2024-03-22T02:54:29;21.87;;;13.27;;
14139;SDS011;7150;53.514;9.988;2024-03-22T02:56:54;19.63;;;14.00;;
14139;SDS011;7150;53.514;9.988;2024-03-22T02:59:19;20.30;;;12.53;;
14139;SDS011;7150;53.514;9.988;2024-03-22T03:01:45;18.30;;;13.53;;
14139;SDS011;7150;53.514;9.988;2024-03-22T03:04:10;20.10;;;13.57;;
14139;SDS011;7150;53.514;9.988;2024-03-22T03:06:36;20.00;;;13.73;;
14139;SDS011;7150;53.514;9.988;2024-03-22T03:09:02;22.60;;;15.07;;
14139;SDS011;7150;53.514;9.988;2024-03-22T03:11:29;21.03;;;14.17;;
14139;SDS011;7150;53.514;9.988;2024-03-22T03:13:55;21.30;;;14.40;;
14139;SDS011;7150;53.514;9.988;2024-03-22T03:16:20;20.73;;;13.63;;
14139;SDS011;7150;53.514;9.988;2024-03-22T03:18:46;26.40;;;16.30;;
14139;SDS011;7150;53.514;9.988;2024-03-22T03:21:11;28.73;;;16.07;;
14139;SDS011;7150;53.514;9.988;2024-03-22T03:23:37;23.67;;;16.33;;
14139;SDS011;7150;53.514;9.988;2024-03-22T03:26:02;21.90;;;15.10;;
14139;SDS011;7150;53.514;9.988;2024-03-22T03:28:28;22.03;;;14.90;;
14139;SDS011;7150;53.514;9.988;2024-03-22T03:30:53;20.63;;;15.13;;
14139;SDS011;7150;53.514;9.988;2024-03-22T03:33:19;21.67;;;14.63;;
14139;SDS011;7150;53.514;9.988;2024-03-22T03:35:47;21.37;;;14.33;;
14139;SDS011;7150;53.514;9.988;2024-03-22T03:38:13;23.50;;;15.77;;
14139;SDS011;7150;53.514;9.988;2024-03-22T03:40:38;22.27;;;15.23;;
14139;SDS011;7150;53.514;9.988;2024-03-22T03:43:04;22.03;;;13.80;;
14139;SDS011;7150;53.514;9.988;2024-03-22T03:45:29;22.63;;;14.97;;
14139;SDS011;7150;53.514;9.988;2024-03-22T03:47:55;22.83;;;15.23;;
14139;SDS011;7150;53.514;9.988;2024-03-22T03:50:21;21.50;;;14.43;;
14139;SDS011;7150;53.514;9.988;2024-03-22T03:52:47;23.67;;;15.53;;
14139;SDS011;7150;53.514;9.988;2024-03-22T03:55:12;23.97;;;15.90;;
14139;SDS011;7150;53.514;9.988;2024-03-22T03:57:38;24.13;;;16.47;;
14139;SDS011;7150;53.514;9.988;2024-03-22T04:00:03;26.03;;;15.87;;
14139;SDS011;7150;53.514;9.988;2024-03-22T04:02:30;26.03;;;16.30;;
14139;SDS011;7150;53.514;9.988;2024-03-22T04:04:55;28.90;;;18.43;;
14139;SDS011;7150;53.514;9.988;2024-03-22T04:07:21;25.73;;;16.60;;
14139;SDS011;7150;53.514;9.988;2024-03-22T04:09:46;25.90;;;16.87;;
14139;SDS011;7150;53.514;9.988;2024-03-22T04:12:12;27.70;;;18.13;;
14139;SDS011;7150;53.514;9.988;2024-03-22T04:14:38;29.03;;;19.40;;
14139;SDS011;7150;53.514;9.988;2024-03-22T04:17:04;26.37;;;17.67;;
14139;SDS011;7150;53.514;9.988;2024-03-22T04:19:29;28.00;;;18.67;;
14139;SDS011;7150;53.514;9.988;2024-03-22T04:21:55;29.53;;;19.27;;
14139;SDS011;7150;53.514;9.988;2024-03-22T04:24:20;29.77;;;18.83;;
14139;SDS011;7150;53.514;9.988;2024-03-22T04:26:46;28.33;;;18.27;;
14139;SDS011;7150;53.514;9.988;2024-03-22T04:29:11;27.13;;;18.90;;
14139;SDS011;7150;53.514;9.988;2024-03-22T04:31:37;24.20;;;17.20;;
14139;SDS011;7150;53.514;9.988;2024-03-22T04:34:02;26.77;;;17.10;;
14139;SDS011;7150;53.514;9.988;2024-03-22T04:36:30;26.10;;;17.20;;
14139;SDS011;7150;53.514;9.988;2024-03-22T04:38:55;27.57;;;18.37;;
14139;SDS011;7150;53.514;9.988;2024-03-22T04:41:21;28.10;;;18.20;;
14139;SDS011;7150;53.514;9.988;2024-03-22T04:43:46;28.30;;;18.57;;
14139;SDS011;7150;53.514;9.988;2024-03-22T04:46:12;29.43;;;18.40;;
14139;SDS011;7150;53.514;9.988;2024-03-22T04:48:38;31.40;;;18.67;;
14139;SDS011;7150;53.514;9.988;2024-03-22T04:51:03;29.53;;;18.47;;
14139;SDS011;7150;53.514;9.988;2024-03-22T04:53:29;27.17;;;17.57;;
14139;SDS011;7150;53.514;9.988;2024-03-22T04:55:54;28.80;;;18.47;;
14139;SDS011;7150;53.514;9.988;2024-03-22T04:58:20;27.73;;;17.27;;
14139;SDS011;7150;53.514;9.988;2024-03-22T05:00:49;27.47;;;18.03;;
14139;SDS011;7150;53.514;9.988;2024-03-22T05:03:20;28.07;;;17.10;;
14139;SDS011;7150;53.514;9.988;2024-03-22T05:05:46;27.53;;;18.07;;
14139;SDS011;7150;53.514;9.988;2024-03-22T05:08:11;26.70;;;17.07;;
14139;SDS011;7150;53.514;9.988;2024-03-22T05:10:37;31.57;;;20.10;;
14139;SDS011;7150;53.514;9.988;2024-03-22T05:13:02;28.33;;;19.23;;
14139;SDS011;7150;53.514;9.988;2024-03-22T05:15:28;30.27;;;19.00;;
14139;SDS011;7150;53.514;9.988;2024-03-22T05:17:55;31.70;;;19.63;;
14139;SDS011;7150;53.514;9.988;2024-03-22T05:20:22;31.57;;;20.47;;
14139;SDS011;7150;53.514;9.988;2024-03-22T05:22:47;28.60;;;18.80;;
14139;SDS011;7150;53.514;9.988;2024-03-22T05:25:13;31.93;;;18.97;;
14139;SDS011;7150;53.514;9.988;2024-03-22T05:27:40;32.80;;;19.90;;
14139;SDS011;7150;53.514;9.988;2024-03-22T05:30:07;33.10;;;20.57;;
14139;SDS011;7150;53.514;9.988;2024-03-22T05:32:33;32.93;;;19.60;;
14139;SDS011;7150;53.514;9.988;2024-03-22T05:34:59;30.33;;;19.43;;
14139;SDS011;7150;53.514;9.988;2024-03-22T05:37:24;32.47;;;19.57;;
14139;SDS011;7150;53.514;9.988;2024-03-22T05:39:50;32.20;;;19.73;;
14139;SDS011;7150;53.514;9.988;2024-03-22T05:42:15;30.83;;;19.70;;
14139;SDS011;7150;53.514;9.988;2024-03-22T05:44:41;32.60;;;20.63;;
14139;SDS011;7150;53.514;9.988;2024-03-22T05:47:06;32.10;;;20.10;;
14139;SDS011;7150;53.514;9.988;2024-03-22T05:49:32;34.37;;;21.63;;
14139;SDS011;7150;53.514;9.988;2024-03-22T05:51:57;34.30;;;20.63;;
14139;SDS011;7150;53.514;9.988;2024-03-22T05:54:23;32.07;;;20.73;;
14139;SDS011;7150;53.514;9.988;2024-03-22T05:56:48;32.77;;;20.77;;
14139;SDS011;7150;53.514;9.988;2024-03-22T05:59:14;33.80;;;21.93;;
14139;SDS011;7150;53.514;9.988;2024-03-22T06:01:39;31.60;;;20.33;;
14139;SDS011;7150;53.514;9.988;2024-03-22T06:04:05;33.00;;;20.83;;
14139;SDS011;7150;53.514;9.988;2024-03-22T06:06:34;39.70;;;24.83;;
14139;SDS011;7150;53.514;9.988;2024-03-22T06:09:01;37.10;;;23.03;;
14139;SDS011;7150;53.514;9.988;2024-03-22T06:11:29;42.63;;;25.23;;
14139;SDS011;7150;53.514;9.988;2024-03-22T06:13:55;38.13;;;23.23;;
14139;SDS011;7150;53.514;9.988;2024-03-22T06:16:20;34.43;;;21.13;;
14139;SDS011;7150;53.514;9.988;2024-03-22T06:18:47;34.27;;;21.07;;
14139;SDS011;7150;53.514;9.988;2024-03-22T06:21:13;35.77;;;21.47;;
14139;SDS011;7150;53.514;9.988;2024-03-22T06:23:39;36.13;;;22.03;;
14139;SDS011;7150;53.514;9.988;2024-03-22T06:26:06;37.63;;;22.57;;
14139;SDS011;7150;53.514;9.988;2024-03-22T06:28:32;39.37;;;23.40;;
14139;SDS011;7150;53.514;9.988;2024-03-22T06:30:57;38.60;;;23.03;;
14139;SDS011;7150;53.514;9.988;2024-03-22T06:33:23;37.97;;;22.40;;
14139;SDS011;7150;53.514;9.988;2024-03-22T06:35:48;38.57;;;22.27;;
14139;SDS011;7150;53.514;9.988;2024-03-22T06:38:14;39.53;;;23.53;;
14139;SDS011;7150;53.514;9.988;2024-03-22T06:40:40;37.40;;;23.23;;
14139;SDS011;7150;53.514;9.988;2024-03-22T06:43:05;38.07;;;23.43;;
14139;SDS011;7150;53.514;9.988;2024-03-22T06:45:31;36.00;;;23.17;;
14139;SDS011;7150;53.514;9.988;2024-03-22T06:47:57;37.83;;;22.73;;
14139;SDS011;7150;53.514;9.988;2024-03-22T06:50:22;37.53;;;23.03;;
14139;SDS011;7150;53.514;9.988;2024-03-22T06:52:50;33.65;;;22.00;;
14139;SDS011;7150;53.514;9.988;2024-03-22T06:55:19;35.93;;;23.07;;
14139;SDS011;7150;53.514;9.988;2024-03-22T06:57:46;35.60;;;20.83;;
14139;SDS011;7150;53.514;9.988;2024-03-22T07:00:12;38.43;;;21.77;;
14139;SDS011;7150;53.514;9.988;2024-03-22T07:02:38;37.57;;;22.10;;
14139;SDS011;7150;53.514;9.988;2024-03-22T07:05:05;37.83;;;22.83;;
14139;SDS011;7150;53.514;9.988;2024-03-22T07:07:31;33.83;;;21.20;;
14139;SDS011;7150;53.514;9.988;2024-03-22T07:09:56;36.63;;;21.93;;
14139;SDS011;7150;53.514;9.988;2024-03-22T07:12:22;35.90;;;20.70;;
14139;SDS011;7150;53.514;9.988;2024-03-22T07:14:47;35.03;;;22.07;;
14139;SDS011;7150;53.514;9.988;2024-03-22T07:17:13;35.23;;;21.87;;
14139;SDS011;7150;53.514;9.988;2024-03-22T07:19:40;43.27;;;24.57;;
14139;SDS011;7150;53.514;9.988;2024-03-22T07:22:05;37.67;;;22.97;;
14139;SDS011;7150;53.514;9.988;2024-03-22T07:24:31;38.37;;;24.23;;
14139;SDS011;7150;53.514;9.988;2024-03-22T07:26:57;38.40;;;23.63;;
14139;SDS011;7150;53.514;9.988;2024-03-22T07:29:22;35.73;;;23.73;;
14139;SDS011;7150;53.514;9.988;2024-03-22T07:31:48;46.73;;;26.27;;
14139;SDS011;7150;53.514;9.988;2024-03-22T07:34:13;40.13;;;23.93;;
14139;SDS011;7150;53.514;9.988;2024-03-22T07:36:40;41.40;;;23.77;;
14139;SDS011;7150;53.514;9.988;2024-03-22T07:39:05;44.20;;;26.17;;
14139;SDS011;7150;53.514;9.988;2024-03-22T07:41:34;38.57;;;23.83;;
14139;SDS011;7150;53.514;9.988;2024-03-22T07:44:00;43.93;;;26.27;;
14139;SDS011;7150;53.514;9.988;2024-03-22T07:46:26;40.23;;;24.77;;
14139;SDS011;7150;53.514;9.988;2024-03-22T07:48:52;38.17;;;23.60;;
14139;SDS011;7150;53.514;9.988;2024-03-22T07:51:18;42.67;;;24.47;;
14139;SDS011;7150;53.514;9.988;2024-03-22T07:53:44;42.63;;;24.07;;
14139;SDS011;7150;53.514;9.988;2024-03-22T07:56:10;40.70;;;24.33;;
14139;SDS011;7150;53.514;9.988;2024-03-22T07:58:36;42.30;;;25.67;;
14139;SDS011;7150;53.514;9.988;2024-03-22T08:01:01;41.77;;;24.23;;
14139;SDS011;7150;53.514;9.988;2024-03-22T08:03:27;45.53;;;26.90;;
14139;SDS011;7150;53.514;9.988;2024-03-22T08:05:52;40.60;;;25.00;;
14139;SDS011;7150;53.514;9.988;2024-03-22T08:08:18;40.33;;;25.20;;
14139;SDS011;7150;53.514;9.988;2024-03-22T08:10:43;40.77;;;25.43;;
14139;SDS011;7150;53.514;9.988;2024-03-22T08:13:09;40.67;;;23.80;;
14139;SDS011;7150;53.514;9.988;2024-03-22T08:15:36;38.20;;;22.83;;
14139;SDS011;7150;53.514;9.988;2024-03-22T08:18:01;45.27;;;24.80;;
14139;SDS011;7150;53.514;9.988;2024-03-22T08:20:27;40.27;;;23.80;;
14139;SDS011;7150;53.514;9.988;2024-03-22T08:22:53;39.67;;;23.93;;
14139;SDS011;7150;53.514;9.988;2024-03-22T08:25:19;42.47;;;25.43;;
14139;SDS011;7150;53.514;9.988;2024-03-22T08:27:45;39.83;;;24.20;;
14139;SDS011;7150;53.514;9.988;2024-03-22T08:30:11;37.47;;;22.37;;
14139;SDS011;7150;53.514;9.988;2024-03-22T08:32:37;38.07;;;22.83;;
14139;SDS011;7150;53.514;9.988;2024-03-22T08:35:03;39.60;;;22.90;;
14139;SDS011;7150;53.514;9.988;2024-03-22T08:37:29;35.00;;;21.30;;
14139;SDS011;7150;53.514;9.988;2024-03-22T08:39:56;39.70;;;24.00;;
14139;SDS011;7150;53.514;9.988;2024-03-22T08:42:21;40.20;;;23.67;;
14139;SDS011;7150;53.514;9.988;2024-03-22T08:44:47;36.93;;;22.83;;
14139;SDS011;7150;53.514;9.988;2024-03-22T08:47:12;37.33;;;20.80;;
14139;SDS011;7150;53.514;9.988;2024-03-22T08:49:38;38.80;;;23.40;;
14139;SDS011;7150;53.514;9.988;2024-03-22T08:52:06;37.10;;;21.93;;
14139;SDS011;7150;53.514;9.988;2024-03-22T08:54:32;39.47;;;23.57;;
14139;SDS011;7150;53.514;9.988;2024-03-22T08:56:57;40.17;;;22.83;;
14139;SDS011;7150;53.514;9.988;2024-03-22T08:59:22;40.73;;;24.03;;
14139;SDS011;7150;53.514;9.988;2024-03-22T09:01:49;43.03;;;24.33;;
14139;SDS011;7150;53.514;9.988;2024-03-22T09:04:15;40.10;;;23.10;;
14139;SDS011;7150;53.514;9.988;2024-03-22T09:06:40;37.80;;;22.20;;
14139;SDS011;7150;53.514;9.988;2024-03-22T09:09:06;40.73;;;24.43;;
14139;SDS011;7150;53.514;9.988;2024-03-22T09:11:33;40.63;;;23.80;;
14139;SDS011;7150;53.514;9.988;2024-03-22T09:13:58;36.70;;;21.93;;
14139;SDS011;7150;53.514;9.988;2024-03-22T09:16:24;43.30;;;24.83;;
14139;SDS011;7150;53.514;9.988;2024-03-22T09:18:49;39.97;;;23.90;;
14139;SDS011;7150;53.514;9.988;2024-03-22T09:21:15;40.53;;;22.90;;
14139;SDS011;7150;53.514;9.988;2024-03-22T09:23:41;42.17;;;24.13;;
14139;SDS011;7150;53.514;9.988;2024-03-22T09:26:06;41.90;;;23.53;;
14139;SDS011;7150;53.514;9.988;2024-03-22T09:28:32;40.77;;;25.57;;
14139;SDS011;7150;53.514;9.988;2024-03-22T09:30:57;41.57;;;23.63;;
14139;SDS011;7150;53.514;9.988;2024-03-22T09:33:27;40.67;;;23.00;;
14139;SDS011;7150;53.514;9.988;2024-03-22T09:35:53;43.43;;;25.67;;
14139;SDS011;7150;53.514;9.988;2024-03-22T09:38:19;42.03;;;23.97;;
14139;SDS011;7150;53.514;9.988;2024-03-22T09:40:44;42.70;;;24.27;;
14139;SDS011;7150;53.514;9.988;2024-03-22T09:43:11;42.97;;;25.73;;
14139;SDS011;7150;53.514;9.988;2024-03-22T09:45:42;40.80;;;23.73;;
14139;SDS011;7150;53.514;9.988;2024-03-22T09:48:09;43.63;;;25.07;;
14139;SDS011;7150;53.514;9.988;2024-03-22T09:50:34;39.77;;;24.37;;
14139;SDS011;7150;53.514;9.988;2024-03-22T09:53:00;43.93;;;24.13;;
14139;SDS011;7150;53.514;9.988;2024-03-22T09:55:27;38.63;;;22.57;;
14139;SDS011;7150;53.514;9.988;2024-03-22T09:57:55;37.10;;;22.47;;
14139;SDS011;7150;53.514;9.988;2024-03-22T10:00:20;39.70;;;23.57;;
14139;SDS011;7150;53.514;9.988;2024-03-22T10:02:47;39.43;;;22.93;;
14139;SDS011;7150;53.514;9.988;2024-03-22T10:05:14;39.63;;;23.00;;
14139;SDS011;7150;53.514;9.988;2024-03-22T10:07:40;33.13;;;19.57;;
14139;SDS011;7150;53.514;9.988;2024-03-22T10:10:06;35.83;;;20.67;;
14139;SDS011;7150;53.514;9.988;2024-03-22T10:12:32;36.60;;;21.10;;
14139;SDS011;7150;53.514;9.988;2024-03-22T10:14:58;35.67;;;20.27;;
14139;SDS011;7150;53.514;9.988;2024-03-22T10:17:25;33.47;;;19.47;;
14139;SDS011;7150;53.514;9.988;2024-03-22T10:19:51;32.93;;;19.40;;
14139;SDS011;7150;53.514;9.988;2024-03-22T10:22:17;31.27;;;18.40;;
14139;SDS011;7150;53.514;9.988;2024-03-22T10:24:43;32.93;;;18.63;;
14139;SDS011;7150;53.514;9.988;2024-03-22T10:27:09;32.13;;;19.03;;
14139;SDS011;7150;53.514;9.988;2024-03-22T10:29:35;30.47;;;18.83;;
14139;SDS011;7150;53.514;9.988;2024-03-22T10:32:01;31.57;;;18.50;;
14139;SDS011;7150;53.514;9.988;2024-03-22T10:34:27;25.80;;;16.83;;
14139;SDS011;7150;53.514;9.988;2024-03-22T10:36:55;32.30;;;18.73;;
14139;SDS011;7150;53.514;9.988;2024-03-22T10:39:21;31.73;;;18.37;;
14139;SDS011;7150;53.514;9.988;2024-03-22T10:41:48;26.70;;;16.73;;
14139;SDS011;7150;53.514;9.988;2024-03-22T10:44:17;24.20;;;15.47;;
14139;SDS011;7150;53.514;9.988;2024-03-22T10:46:46;26.93;;;16.27;;
14139;SDS011;7150;53.514;9.988;2024-03-22T10:49:15;27.47;;;15.97;;
14139;SDS011;7150;53.514;9.988;2024-03-22T10:51:48;26.57;;;15.83;;
14139;SDS011;7150;53.514;9.988;2024-03-22T10:54:18;25.87;;;15.17;;
14139;SDS011;7150;53.514;9.988;2024-03-22T10:56:47;23.93;;;15.43;;
14139;SDS011;7150;53.514;9.988;2024-03-22T10:59:14;26.47;;;16.07;;
14139;SDS011;7150;53.514;9.988;2024-03-22T11:01:45;25.07;;;15.87;;
14139;SDS011;7150;53.514;9.988;2024-03-22T11:04:10;24.20;;;14.80;;
14139;SDS011;7150;53.514;9.988;2024-03-22T11:06:36;25.10;;;15.33;;
14139;SDS011;7150;53.514;9.988;2024-03-22T11:09:02;24.87;;;15.20;;
14139;SDS011;7150;53.514;9.988;2024-03-22T11:11:31;25.57;;;15.17;;
14139;SDS011;7150;53.514;9.988;2024-03-22T11:14:02;21.83;;;13.77;;
14139;SDS011;7150;53.514;9.988;2024-03-22T11:16:27;25.53;;;15.03;;
14139;SDS011;7150;53.514;9.988;2024-03-22T11:18:53;20.97;;;14.20;;
14139;SDS011;7150;53.514;9.988;2024-03-22T11:21:19;22.20;;;13.73;;
14139;SDS011;7150;53.514;9.988;2024-03-22T11:23:45;22.17;;;13.17;;
14139;SDS011;7150;53.514;9.988;2024-03-22T11:26:11;20.53;;;12.50;;
14139;SDS011;7150;53.514;9.988;2024-03-22T11:28:37;18.93;;;12.07;;
14139;SDS011;7150;53.514;9.988;2024-03-22T11:31:03;17.57;;;11.60;;
14139;SDS011;7150;53.514;9.988;2024-03-22T11:33:30;21.97;;;11.77;;
14139;SDS011;7150;53.514;9.988;2024-03-22T11:35:58;17.47;;;12.23;;
14139;SDS011;7150;53.514;9.988;2024-03-22T11:38:25;21.03;;;11.80;;
14139;SDS011;7150;53.514;9.988;2024-03-22T11:40:52;19.40;;;12.60;;
14139;SDS011;7150;53.514;9.988;2024-03-22T11:43:19;19.93;;;11.93;;
14139;SDS011;7150;53.514;9.988;2024-03-22T11:45:45;21.10;;;13.40;;
14139;SDS011;7150;53.514;9.988;2024-03-22T11:48:11;19.80;;;12.57;;
14139;SDS011;7150;53.514;9.988;2024-03-22T11:50:39;20.17;;;12.57;;
14139;SDS011;7150;53.514;9.988;2024-03-22T11:53:05;21.17;;;12.87;;
14139;SDS011;7150;53.514;9.988;2024-03-22T11:55:31;17.97;;;11.37;;
14139;SDS011;7150;53.514;9.988;2024-03-22T11:57:57;18.23;;;11.70;;
14139;SDS011;7150;53.514;9.988;2024-03-22T12:00:23;19.90;;;11.00;;
14139;SDS011;7150;53.514;9.988;2024-03-22T12:02:50;21.23;;;11.60;;
14139;SDS011;7150;53.514;9.988;2024-03-22T12:05:17;20.40;;;12.47;;
14139;SDS011;7150;53.514;9.988;2024-03-22T12:07:43;17.53;;;11.10;;
14139;SDS011;7150;53.514;9.988;2024-03-22T12:10:09;16.77;;;11.17;;
14139;SDS011;7150;53.514;9.988;2024-03-22T12:12:35;17.03;;;10.27;;
14139;SDS011;7150;53.514;9.988;2024-03-22T12:15:01;16.90;;;10.43;;
14139;SDS011;7150;53.514;9.988;2024-03-22T12:17:28;15.07;;;9.87;;
14139;SDS011;7150;53.514;9.988;2024-03-22T12:19:53;14.60;;;9.23;;
14139;SDS011;7150;53.514;9.988;2024-03-22T12:22:20;13.10;;;9.57;;
14139;SDS011;7150;53.514;9.988;2024-03-22T12:24:46;13.43;;;8.60;;
14139;SDS011;7150;53.514;9.988;2024-03-22T12:27:12;10.50;;;7.47;;
14139;SDS011;7150;53.514;9.988;2024-03-22T12:29:37;11.93;;;8.17;;
14139;SDS011;7150;53.514;9.988;2024-03-22T12:32:03;12.97;;;8.57;;
14139;SDS011;7150;53.514;9.988;2024-03-22T12:34:29;12.10;;;7.90;;
14139;SDS011;7150;53.514;9.988;2024-03-22T12:36:55;11.67;;;7.90;;
14139;SDS011;7150;53.514;9.988;2024-03-22T12:39:21;12.13;;;7.70;;
14139;SDS011;7150;53.514;9.988;2024-03-22T12:41:47;10.27;;;7.17;;
14139;SDS011;7150;53.514;9.988;2024-03-22T12:44:13;10.33;;;7.47;;
14139;SDS011;7150;53.514;9.988;2024-03-22T12:46:38;9.73;;;6.70;;
14139;SDS011;7150;53.514;9.988;2024-03-22T12:49:07;10.17;;;6.73;;
14139;SDS011;7150;53.514;9.988;2024-03-22T12:51:33;11.17;;;7.40;;
14139;SDS011;7150;53.514;9.988;2024-03-22T12:54:00;11.23;;;7.57;;
14139;SDS011;7150;53.514;9.988;2024-03-22T12:56:26;9.97;;;6.40;;
14139;SDS011;7150;53.514;9.988;2024-03-22T12:58:51;9.93;;;7.13;;
14139;SDS011;7150;53.514;9.988;2024-03-22T13:01:17;9.80;;;6.80;;
14139;SDS011;7150;53.514;9.988;2024-03-22T13:03:42;10.33;;;7.23;;
14139;SDS011;7150;53.514;9.988;2024-03-22T13:06:08;8.20;;;5.97;;
14139;SDS011;7150;53.514;9.988;2024-03-22T13:08:33;8.87;;;6.17;;
14139;SDS011;7150;53.514;9.988;2024-03-22T13:10:59;7.43;;;6.17;;
14139;SDS011;7150;53.514;9.988;2024-03-22T13:13:24;6.90;;;5.07;;
14139;SDS011;7150;53.514;9.988;2024-03-22T13:15:50;5.40;;;4.23;;
14139;SDS011;7150;53.514;9.988;2024-03-22T13:18:15;5.73;;;3.70;;
14139;SDS011;7150;53.514;9.988;2024-03-22T13:20:41;5.33;;;4.13;;
14139;SDS011;7150;53.514;9.988;2024-03-22T13:23:06;4.43;;;3.70;;
14139;SDS011;7150;53.514;9.988;2024-03-22T13:25:34;5.70;;;4.27;;
14139;SDS011;7150;53.514;9.988;2024-03-22T13:28:01;4.60;;;3.90;;
14139;SDS011;7150;53.514;9.988;2024-03-22T13:30:28;4.33;;;3.60;;
14139;SDS011;7150;53.514;9.988;2024-03-22T13:32:53;4.27;;;3.53;;
14139;SDS011;7150;53.514;9.988;2024-03-22T13:35:19;4.20;;;3.43;;
14139;SDS011;7150;53.514;9.988;2024-03-22T13:37:45;3.67;;;3.30;;
14139;SDS011;7150;53.514;9.988;2024-03-22T13:40:10;3.83;;;3.00;;
14139;SDS011;7150;53.514;9.988;2024-03-22T13:42:36;4.00;;;2.90;;
14139;SDS011;7150;53.514;9.988;2024-03-22T13:45:01;2.97;;;2.67;;
14139;SDS011;7150;53.514;9.988;2024-03-22T13:47:28;3.13;;;2.60;;
14139;SDS011;7150;53.514;9.988;2024-03-22T13:49:53;2.33;;;1.90;;
14139;SDS011;7150;53.514;9.988;2024-03-22T13:52:19;3.20;;;2.33;;
14139;SDS011;7150;53.514;9.988;2024-03-22T13:54:45;2.03;;;1.83;;
14139;SDS011;7150;53.514;9.988;2024-03-22T13:57:11;3.10;;;2.07;;
14139;SDS011;7150;53.514;9.988;2024-03-22T13:59:37;2.40;;;2.20;;
14139;SDS011;7150;53.514;9.988;2024-03-22T14:02:05;2.60;;;2.40;;
14139;SDS011;7150;53.514;9.988;2024-03-22T14:04:31;3.20;;;2.70;;
14139;SDS011;7150;53.514;9.988;2024-03-22T14:06:57;2.63;;;2.30;;
14139;SDS011;7150;53.514;9.988;2024-03-22T14:09:22;2.70;;;2.50;;
14139;SDS011;7150;53.514;9.988;2024-03-22T14:11:48;2.83;;;2.50;;
14139;SDS011;7150;53.514;9.988;2024-03-22T14:14:14;3.50;;;2.50;;
14139;SDS011;7150;53.514;9.988;2024-03-22T14:16:40;3.10;;;2.23;;
14139;SDS011;7150;53.514;9.988;2024-03-22T14:19:06;2.90;;;2.40;;
14139;SDS011;7150;53.514;9.988;2024-03-22T14:21:33;2.17;;;1.93;;
14139;SDS011;7150;53.514;9.988;2024-03-22T14:23:59;2.30;;;2.10;;
14139;SDS011;7150;53.514;9.988;2024-03-22T14:26:24;2.20;;;2.00;;
14139;SDS011;7150;53.514;9.988;2024-03-22T14:28:50;2.20;;;1.83;;
14139;SDS011;7150;53.514;9.988;2024-03-22T14:31:16;2.17;;;1.80;;
14139;SDS011;7150;53.514;9.988;2024-03-22T14:33:41;2.23;;;2.00;;